createdAt,value
2019-04-20T00:00:48.313Z,100350.13
2019-04-20T00:03:13.774Z,100350.83
2019-04-20T00:05:43.422Z,100349.66
2019-04-20T00:08:16.783Z,100351.42
2019-04-20T00:10:51.360Z,100345.01
2019-04-20T00:13:25.166Z,100348.45
2019-04-20T00:15:42.954Z,100348.72
2019-04-20T00:18:12.234Z,100338.79
2019-04-20T00:20:43.838Z,100341.05
2019-04-20T00:23:30.284Z,100341.30
2019-04-20T00:26:17.287Z,100347.25
2019-04-20T00:29:04.357Z,100336.08
2019-04-20T00:31:26.920Z,100332.05
2019-04-20T00:33:52.864Z,100331.67
2019-04-20T00:36:10.188Z,100332.02
2019-04-20T00:38:45.526Z,100334.16
2019-04-20T00:41:12.034Z,100330.25
2019-04-20T00:43:40.508Z,100331.09
2019-04-20T00:46:18.388Z,100326.95
2019-04-20T00:48:48.579Z,100323.09
2019-04-20T00:51:32.785Z,100317.17
2019-04-20T00:53:43.257Z,100318.27
2019-04-20T00:56:09.876Z,100308.94
2019-04-20T00:58:52.238Z,100308.80
2019-04-20T01:01:31.033Z,100313.52
2019-04-20T01:03:52.102Z,100310.55
2019-04-20T01:06:28.823Z,100309.91
2019-04-20T01:08:48.465Z,100307.78
2019-04-20T01:11:26.991Z,100311.31
2019-04-20T01:13:52.516Z,100314.94
2019-04-20T01:16:25.702Z,100311.51
2019-04-20T01:18:48.032Z,100318.19
2019-04-20T01:21:20.338Z,100310.29
2019-04-20T01:23:53.067Z,100315.68
2019-04-20T01:26:20.515Z,100307.55
2019-04-20T01:28:58.459Z,100313.04
2019-04-20T01:31:28.434Z,100306.23
2019-04-20T01:33:55.007Z,100313.80
2019-04-20T01:36:36.792Z,100309.52
2019-04-20T01:38:58.750Z,100312.83
2019-04-20T01:41:16.468Z,100313.69
2019-04-20T01:43:45.895Z,100316.84
2019-04-20T01:46:18.954Z,100316.19
2019-04-20T01:48:44.760Z,100318.16
2019-04-20T01:51:21.194Z,100316.22
2019-04-20T01:54:00.826Z,100309.61
2019-04-20T01:56:27.496Z,100315.27
2019-04-20T01:59:04.547Z,100314.77
2019-04-20T02:01:27.484Z,100315.70
2019-04-20T02:04:17.163Z,100315.63
2019-04-20T02:06:47.177Z,100312.13
2019-04-20T02:09:15.026Z,100310.55
2019-04-20T02:11:44.792Z,100315.95
2019-04-20T02:14:12.089Z,100315.70
2019-04-20T02:16:46.040Z,100316.66
2019-04-20T02:19:28.958Z,100316.16
2019-04-20T02:21:55.932Z,100317.91
2019-04-20T02:24:12.575Z,100317.89
2019-04-20T02:26:40.989Z,100315.89
2019-04-20T02:29:31.953Z,100316.30
2019-04-20T02:32:19.743Z,100319.80
2019-04-20T02:39:46.294Z,100321.63
2019-04-20T02:42:28.231Z,100308.34
2019-04-20T02:44:50.023Z,100314.38
2019-04-20T02:49:51.690Z,100312.08
2019-04-20T02:54:50.840Z,100306.69
2019-04-20T02:57:33.344Z,100308.60
2019-04-20T03:01:59.439Z,100306.08
2019-04-20T03:04:28.083Z,100302.61
2019-04-20T03:07:00.937Z,100297.53
2019-04-20T03:09:36.898Z,100297.53
2019-04-20T03:12:25.714Z,100295.18
2019-04-20T03:14:26.512Z,100297.28
2019-04-20T03:17:08.710Z,100299.69
2019-04-20T03:19:28.827Z,100300.89
2019-04-20T03:22:08.895Z,100301.74
2019-04-20T03:24:41.133Z,100297.31
2019-04-20T03:27:07.540Z,100298.05
2019-04-20T03:29:40.846Z,100299.45
2019-04-20T03:37:24.777Z,100297.78
2019-04-20T03:39:40.452Z,100296.16
2019-04-20T03:41:58.419Z,100298.36
2019-04-20T03:44:29.658Z,100298.71
2019-04-20T03:47:01.223Z,100297.74
2019-04-20T03:49:52.792Z,100296.00
2019-04-20T03:52:26.182Z,100290.52
2019-04-20T03:55:10.520Z,100293.59
2019-04-20T03:57:54.207Z,100294.80
2019-04-20T04:00:22.046Z,100291.05
2019-04-20T04:03:12.577Z,100292.56
2019-04-20T04:05:33.966Z,100295.29
2019-04-20T04:07:58.713Z,100291.05
2019-04-20T04:10:31.677Z,100291.92
2019-04-20T04:13:07.593Z,100297.41
2019-04-20T04:15:42.773Z,100300.73
2019-04-20T04:18:13.889Z,100291.45
2019-04-20T04:20:44.432Z,100289.41
2019-04-20T04:23:22.048Z,100296.33
2019-04-20T04:25:57.994Z,100293.81
2019-04-20T04:28:27.261Z,100297.52
2019-04-20T04:30:59.932Z,100305.53
2019-04-20T04:33:50.487Z,100300.89
2019-04-20T04:35:51.529Z,100298.09
2019-04-20T04:38:35.308Z,100300.91
2019-04-20T04:41:01.953Z,100303.25
2019-04-20T04:43:19.731Z,100306.14
2019-04-20T04:45:37.037Z,100303.04
2019-04-20T04:48:13.149Z,100305.25
2019-04-20T04:50:44.642Z,100306.91
2019-04-20T04:53:13.405Z,100301.20
2019-04-20T04:55:45.817Z,100293.61
2019-04-20T04:58:06.477Z,100299.61
2019-04-20T05:00:36.470Z,100301.23
2019-04-20T05:03:23.350Z,100305.56
2019-04-20T05:05:58.900Z,100302.94
2019-04-20T05:08:15.502Z,100310.39
2019-04-20T05:10:39.250Z,100316.56
2019-04-20T05:13:09.080Z,100323.93
2019-04-20T05:15:53.910Z,100316.61
2019-04-20T05:18:34.432Z,100313.97
2019-04-20T05:21:00.301Z,100313.19
2019-04-20T05:23:24.303Z,100321.03
2019-04-20T05:26:11.620Z,100319.27
2019-04-20T05:28:27.788Z,100317.73
2019-04-20T05:30:53.750Z,100321.16
2019-04-20T05:33:28.217Z,100328.43
2019-04-20T05:36:05.652Z,100319.48
2019-04-20T05:38:42.011Z,100319.41
2019-04-20T05:41:08.867Z,100317.08
2019-04-20T05:43:42.891Z,100323.96
2019-04-20T05:46:18.200Z,100319.13
2019-04-20T05:48:50.733Z,100324.46
2019-04-20T05:51:21.239Z,100320.45
2019-04-20T05:53:45.275Z,100319.97
2019-04-20T05:56:18.187Z,100316.89
2019-04-20T05:58:47.588Z,100310.72
2019-04-20T06:01:20.208Z,100318.80
2019-04-20T06:03:45.458Z,100309.49
2019-04-20T06:06:13.867Z,100315.81
2019-04-20T06:08:53.788Z,100314.87
2019-04-20T06:11:22.034Z,100312.75
2019-04-20T06:13:37.919Z,100313.60
2019-04-20T06:16:18.622Z,100323.66
2019-04-20T06:18:47.025Z,100322.24
2019-04-20T06:21:31.272Z,100326.68
2019-04-20T06:24:15.621Z,100320.14
2019-04-20T06:26:55.285Z,100326.32
2019-04-20T06:29:16.321Z,100324.99
2019-04-20T06:31:45.480Z,100330.80
2019-04-20T06:34:30.650Z,100331.69
2019-04-20T06:42:07.107Z,100329.26
2019-04-20T06:44:34.086Z,100338.66
2019-04-20T06:47:00.826Z,100342.97
2019-04-20T06:51:59.391Z,100345.66
2019-04-20T06:54:16.426Z,100340.31
2019-04-20T06:57:00.316Z,100346.91
2019-04-20T06:59:36.386Z,100348.80
2019-04-20T07:02:10.010Z,100351.91
2019-04-20T07:04:42.207Z,100349.31
2019-04-20T07:07:05.245Z,100350.93
2019-04-20T07:09:39.876Z,100350.78
2019-04-20T07:12:00.839Z,100351.29
2019-04-20T07:14:17.621Z,100358.68
2019-04-20T07:17:10.885Z,100351.11
2019-04-20T07:19:28.679Z,100352.11
2019-04-20T07:22:19.323Z,100358.24
2019-04-20T07:24:48.867Z,100353.11
2019-04-20T07:27:13.563Z,100358.23
2019-04-20T07:29:49.109Z,100351.64
2019-04-20T07:32:07.527Z,100361.02
2019-04-20T07:34:47.567Z,100359.52
2019-04-20T07:37:42.722Z,100352.19
2019-04-20T07:39:48.276Z,100352.69
2019-04-20T07:42:16.807Z,100358.05
2019-04-20T07:44:48.782Z,100354.75
2019-04-20T07:47:21.832Z,100361.64
2019-04-20T07:49:40.388Z,100359.69
2019-04-20T07:51:55.553Z,100356.61
2019-04-20T07:54:58.405Z,100355.98
2019-04-20T07:57:14.497Z,100347.66
2019-04-20T07:59:36.698Z,100350.53
2019-04-20T08:02:24.973Z,100343.16
2019-04-20T08:04:55.074Z,100347.63
2019-04-20T08:07:10.443Z,100351.15
2019-04-20T08:09:47.839Z,100340.96
2019-04-20T08:12:34.585Z,100350.05
2019-04-20T08:15:05.131Z,100346.07
2019-04-20T08:17:46.485Z,100340.34
2019-04-20T08:19:58.118Z,100340.40
2019-04-20T08:22:38.863Z,100345.78
2019-04-20T08:24:55.215Z,100348.48
2019-04-20T08:27:13.187Z,100346.82
2019-04-20T08:29:59.051Z,100339.77
2019-04-20T08:32:50.588Z,100341.55
2019-04-20T08:35:33.443Z,100340.21
2019-04-20T08:38:14.903Z,100334.42
2019-04-20T08:40:36.216Z,100336.64
2019-04-20T08:43:02.383Z,100330.43
2019-04-20T08:45:38.610Z,100336.20
2019-04-20T08:48:09.756Z,100333.05
2019-04-20T08:50:27.194Z,100333.88
2019-04-20T08:53:12.430Z,100330.78
2019-04-20T08:55:23.377Z,100333.89
2019-04-20T08:57:39.861Z,100334.81
2019-04-20T09:00:11.064Z,100330.33
2019-04-20T09:02:41.258Z,100330.20
2019-04-20T09:05:24.886Z,100335.47
2019-04-20T09:07:53.179Z,100335.47
2019-04-20T09:10:34.326Z,100330.52
2019-04-20T09:12:53.236Z,100334.00
2019-04-20T09:15:10.552Z,100325.94
2019-04-20T09:17:48.419Z,100334.44
2019-04-20T09:20:22.885Z,100329.53
2019-04-20T09:23:02.293Z,100330.12
2019-04-20T09:25:50.890Z,100333.61
2019-04-20T09:28:17.540Z,100322.91
2019-04-20T09:30:57.213Z,100322.00
2019-04-20T09:33:44.109Z,100324.77
2019-04-20T09:36:15.472Z,100327.90
2019-04-20T09:38:57.185Z,100319.76
2019-04-20T09:41:45.228Z,100321.81
2019-04-20T09:43:51.093Z,100320.39
2019-04-20T09:46:20.016Z,100319.73
2019-04-20T09:48:55.569Z,100321.42
2019-04-20T09:51:37.692Z,100317.98
2019-04-20T09:54:02.900Z,100319.73
2019-04-20T09:56:32.405Z,100319.08
2019-04-20T09:59:08.233Z,100316.53
2019-04-20T10:01:30.419Z,100316.53
2019-04-20T10:03:50.149Z,100322.58
2019-04-20T10:06:23.074Z,100314.53
2019-04-20T10:08:52.940Z,100314.53
2019-04-20T10:11:19.404Z,100313.91
2019-04-20T10:13:48.172Z,100313.91
2019-04-20T10:16:17.638Z,100307.86
2019-04-20T10:18:51.616Z,100307.86
2019-04-20T10:21:16.307Z,100313.17
2019-04-20T10:23:44.932Z,100304.74
2019-04-20T10:26:14.387Z,100309.99
2019-04-20T10:28:43.602Z,100307.39
2019-04-20T10:31:12.739Z,100304.56
2019-04-20T10:33:41.755Z,100302.81
2019-04-20T10:36:12.037Z,100301.56
2019-04-20T10:38:40.299Z,100298.78
2019-04-20T10:41:16.232Z,100296.78
2019-04-20T10:43:38.798Z,100288.84
2019-04-20T10:46:07.092Z,100288.05
2019-04-20T10:48:41.355Z,100290.12
2019-04-20T10:51:05.396Z,100292.88
2019-04-20T10:53:33.681Z,100283.95
2019-04-20T10:56:03.328Z,100286.89
2019-04-20T10:58:32.035Z,100291.62
2019-04-20T11:01:01.686Z,100281.78
2019-04-20T11:03:30.314Z,100288.17
2019-04-20T11:05:58.628Z,100285.58
2019-04-20T11:08:26.950Z,100285.18
2019-04-20T11:11:07.326Z,100287.00
2019-04-20T11:13:25.586Z,100282.55
2019-04-20T11:15:54.723Z,100283.03
2019-04-20T11:18:23.413Z,100276.94
2019-04-20T11:20:51.684Z,100274.13
2019-04-20T11:23:20.347Z,100272.52
2019-04-20T11:25:48.754Z,100271.11
2019-04-20T11:28:17.068Z,100273.81
2019-04-20T11:30:46.096Z,100268.82
2019-04-20T11:33:14.582Z,100262.23
2019-04-20T11:35:45.184Z,100261.25
2019-04-20T11:38:15.443Z,100257.06
2019-04-20T11:40:43.211Z,100259.72
2019-04-20T11:43:11.568Z,100252.12
2019-04-20T11:45:40.560Z,100249.70
2019-04-20T11:48:09.611Z,100247.33
2019-04-20T11:50:38.182Z,100239.59
2019-04-20T11:53:06.443Z,100241.50
2019-04-20T11:55:36.164Z,100239.84
2019-04-20T11:58:05.898Z,100231.88
2019-04-20T12:01:01.239Z,100229.67
2019-04-20T12:03:31.516Z,100223.13
2019-04-20T12:05:57.823Z,100231.22
2019-04-20T12:08:24.985Z,100226.13
2019-04-20T12:10:57.741Z,100224.47
2019-04-20T12:13:24.848Z,100220.14
2019-04-20T12:15:53.867Z,100220.84
2019-04-20T12:18:23.348Z,100218.41
2019-04-20T12:20:52.614Z,100217.56
2019-04-20T12:23:22.319Z,100211.88
2019-04-20T12:25:52.234Z,100206.45
2019-04-20T12:28:21.857Z,100204.65
2019-04-20T12:30:51.542Z,100197.84
2019-04-20T12:33:20.426Z,100197.08
2019-04-20T12:35:49.992Z,100194.23
2019-04-20T12:38:19.110Z,100196.84
2019-04-20T12:40:48.325Z,100191.70
2019-04-20T12:43:17.326Z,100193.00
2019-04-20T12:45:45.760Z,100195.27
2019-04-20T12:48:15.509Z,100196.97
2019-04-20T12:50:44.007Z,100187.00
2019-04-20T12:53:12.850Z,100188.38
2019-04-20T12:55:41.475Z,100187.59
2019-04-20T12:58:10.536Z,100181.20
2019-04-20T13:00:49.819Z,100183.42
2019-04-20T13:03:19.400Z,100184.38
2019-04-20T13:05:48.131Z,100175.44
2019-04-20T13:08:23.146Z,100179.30
2019-04-20T13:10:58.251Z,100176.11
2019-04-20T13:13:34.540Z,100178.77
2019-04-20T13:16:08.303Z,100173.92
2019-04-20T13:18:39.233Z,100168.04
2019-04-20T13:21:09.182Z,100162.83
2019-04-20T13:23:37.595Z,100158.70
2019-04-20T13:26:08.705Z,100160.16
2019-04-20T13:28:37.089Z,100161.78
2019-04-20T13:31:06.111Z,100155.34
2019-04-20T13:33:37.135Z,100159.52
2019-04-20T13:36:05.916Z,100145.50
2019-04-20T13:38:34.609Z,100149.72
2019-04-20T13:41:04.109Z,100141.80
2019-04-20T13:43:32.565Z,100140.31
2019-04-20T13:46:00.898Z,100138.00
2019-04-20T13:48:29.215Z,100132.86
2019-04-20T13:50:58.256Z,100126.02
2019-04-20T13:53:27.507Z,100128.27
2019-04-20T13:55:56.131Z,100127.19
2019-04-20T13:58:41.646Z,100114.70
2019-04-20T14:01:12.571Z,100116.55
2019-04-20T14:03:41.044Z,100112.41
2019-04-20T14:06:09.319Z,100107.49
2019-04-20T14:08:39.085Z,100108.55
2019-04-20T14:11:07.676Z,100095.25
2019-04-20T14:13:41.997Z,100099.08
2019-04-20T14:16:07.656Z,100099.47
2019-04-20T14:18:37.395Z,100097.38
2019-04-20T14:21:08.006Z,100090.66
2019-04-20T14:23:37.066Z,100096.10
2019-04-20T14:26:05.438Z,100091.52
2019-04-20T14:28:33.704Z,100085.33
2019-04-20T14:31:02.042Z,100081.63
2019-04-20T14:33:30.761Z,100080.61
2019-04-20T14:35:59.191Z,100072.42
2019-04-20T14:38:28.538Z,100072.06
2019-04-20T14:40:58.152Z,100070.62
2019-04-20T14:43:26.842Z,100071.57
2019-04-20T14:45:56.688Z,100068.33
2019-04-20T14:48:25.033Z,100066.38
2019-04-20T14:50:53.888Z,100063.77
2019-04-20T14:53:23.272Z,100059.62
2019-04-20T14:55:51.795Z,100063.55
2019-04-20T14:58:42.137Z,100054.75
2019-04-20T15:07:48.678Z,100047.39
2019-04-20T15:10:18.633Z,100046.54
2019-04-20T15:12:52.601Z,100038.59
2019-04-20T15:15:17.103Z,100045.59
2019-04-20T15:17:51.349Z,100042.69
2019-04-20T15:20:21.526Z,100041.45
2019-04-20T15:22:51.646Z,100043.35
2019-04-20T15:25:21.250Z,100034.61
2019-04-20T15:27:50.127Z,100031.45
2019-04-20T15:30:20.374Z,100037.78
2019-04-20T15:32:49.275Z,100033.71
2019-04-20T15:35:19.736Z,100026.02
2019-04-20T15:37:49.078Z,100028.30
2019-04-20T15:40:17.695Z,100030.35
2019-04-20T15:42:56.184Z,100031.30
2019-04-20T15:45:15.982Z,100027.27
2019-04-20T15:47:44.258Z,100027.70
2019-04-20T15:50:13.794Z,100028.36
2019-04-20T15:52:45.647Z,100027.77
2019-04-20T15:55:24.082Z,100026.13
2019-04-20T15:57:42.634Z,100021.81
2019-04-20T16:00:11.075Z,100023.25
2019-04-20T16:02:51.143Z,100013.89
2019-04-20T16:05:28.269Z,100016.94
2019-04-20T16:08:01.990Z,100018.05
2019-04-20T16:10:28.641Z,100012.34
2019-04-20T16:13:11.828Z,100013.29
2019-04-20T16:15:27.553Z,100009.96
2019-04-20T16:17:56.822Z,100011.99
2019-04-20T16:20:27.139Z,100002.20
2019-04-20T16:22:56.451Z,99999.66
2019-04-20T16:25:27.630Z,100003.28
2019-04-20T16:27:56.153Z,100001.64
2019-04-20T16:30:25.408Z,100007.52
2019-04-20T16:32:54.648Z,100005.45
2019-04-20T16:35:24.473Z,100003.84
2019-04-20T16:37:53.031Z,100008.43
2019-04-20T16:40:21.361Z,100003.92
2019-04-20T16:42:50.202Z,100000.81
2019-04-20T16:45:19.157Z,99999.93
2019-04-20T16:47:48.203Z,99994.53
2019-04-20T16:50:17.092Z,99989.35
2019-04-20T16:52:46.544Z,99989.86
2019-04-20T16:55:15.135Z,99988.72
2019-04-20T16:57:46.667Z,99990.13
2019-04-20T17:00:13.758Z,99984.00
2019-04-20T17:02:42.416Z,99984.50
2019-04-20T17:05:11.317Z,99982.28
2019-04-20T17:07:42.689Z,99979.60
2019-04-20T17:10:11.928Z,99980.09
2019-04-20T17:12:41.899Z,99982.04
2019-04-20T17:15:11.645Z,99976.38
2019-04-20T17:17:40.369Z,99983.66
2019-04-20T17:20:09.263Z,99984.23
2019-04-20T17:22:37.639Z,99980.73
2019-04-20T17:25:08.286Z,99972.88
2019-04-20T17:27:51.272Z,99972.92
2019-04-20T17:30:25.536Z,99970.77
2019-04-20T17:32:55.780Z,99975.79
2019-04-20T17:35:37.030Z,99969.70
2019-04-20T17:37:54.076Z,99976.16
2019-04-20T17:40:41.909Z,99964.70
2019-04-20T17:43:02.646Z,99964.70
2019-04-20T17:45:33.410Z,99975.02
2019-04-20T17:48:08.580Z,99980.08
2019-04-20T17:50:41.626Z,99980.08
2019-04-20T17:53:06.103Z,99977.93
2019-04-20T17:55:36.921Z,99973.10
2019-04-20T17:57:57.517Z,99973.10
2019-04-20T18:00:28.998Z,99983.84
2019-04-20T18:03:17.562Z,99977.28
2019-04-20T18:05:58.366Z,99978.31
2019-04-20T18:08:27.249Z,99983.70
2019-04-20T18:10:45.664Z,99979.84
2019-04-20T18:13:12.117Z,99980.69
2019-04-20T18:15:51.613Z,99981.97
2019-04-20T18:18:23.666Z,99982.48
2019-04-20T18:20:43.382Z,99977.20
2019-04-20T18:23:12.907Z,99986.09
2019-04-20T18:26:04.451Z,99989.27
2019-04-20T18:28:27.542Z,99989.27
2019-04-20T18:31:05.311Z,99991.08
2019-04-20T18:33:35.222Z,99991.97
2019-04-20T18:36:02.977Z,99994.63
2019-04-20T18:38:39.376Z,99994.18
2019-04-20T18:41:07.352Z,99996.84
2019-04-20T18:43:32.636Z,100000.42
2019-04-20T18:46:20.331Z,100006.65
2019-04-20T18:48:48.538Z,100006.66
2019-04-20T18:51:01.803Z,100007.58
2019-04-20T18:53:37.434Z,100016.00
2019-04-20T18:56:02.733Z,100009.81
2019-04-20T18:58:31.218Z,100007.62
2019-04-20T19:01:01.145Z,100005.40
2019-04-20T19:03:38.104Z,100008.06
2019-04-20T19:06:00.164Z,100009.41
2019-04-20T19:08:36.418Z,100007.61
2019-04-20T19:11:04.103Z,100007.19
2019-04-20T19:13:50.819Z,100015.17
2019-04-20T19:16:34.648Z,100011.61
2019-04-20T19:19:08.882Z,100014.73
2019-04-20T19:21:27.462Z,100012.50
2019-04-20T19:24:04.056Z,100019.15
2019-04-20T19:26:27.305Z,100015.16
2019-04-20T19:28:59.388Z,100014.25
2019-04-20T19:31:42.695Z,100021.80
2019-04-20T19:34:16.806Z,100015.95
2019-04-20T19:36:33.518Z,100019.05
2019-04-20T19:39:12.140Z,100014.14
2019-04-20T19:41:39.728Z,100008.78
2019-04-20T19:44:12.578Z,100013.17
2019-04-20T19:49:07.993Z,100007.40
2019-04-20T19:51:46.814Z,100007.41
2019-04-20T19:54:22.691Z,100005.67
2019-04-20T19:56:41.415Z,100009.63
2019-04-20T19:59:09.577Z,100006.95
2019-04-20T20:01:27.578Z,100002.52
2019-04-20T20:04:00.260Z,100010.91
2019-04-20T20:06:32.506Z,100007.68
2019-04-20T20:09:03.073Z,100007.69
2019-04-20T20:11:31.942Z,100008.96
2019-04-20T20:13:58.610Z,100005.02
2019-04-20T20:16:31.159Z,100011.73
2019-04-20T20:19:05.848Z,100008.19
2019-04-20T20:21:38.574Z,100002.86
2019-04-20T20:23:56.473Z,100000.52
2019-04-20T20:26:33.643Z,99996.53
2019-04-20T20:29:08.179Z,100000.01
2019-04-20T20:31:37.769Z,99997.34
2019-04-20T20:34:08.495Z,99994.25
2019-04-20T20:36:35.800Z,99997.73
2019-04-20T20:39:04.663Z,99994.95
2019-04-20T20:41:30.015Z,99995.30
2019-04-20T20:44:03.758Z,99993.16
2019-04-20T20:46:34.887Z,99993.37
2019-04-20T20:49:09.395Z,99992.48
2019-04-20T20:52:02.893Z,99989.09
2019-04-20T20:54:04.525Z,99995.31
2019-04-20T20:56:30.959Z,99996.80
2019-04-20T20:59:06.729Z,99999.09
2019-04-20T21:01:29.194Z,99996.53
2019-04-20T21:03:56.725Z,99993.45
2019-04-20T21:06:26.528Z,99999.22
2019-04-20T21:08:56.613Z,100001.43
2019-04-20T21:11:29.453Z,99997.45
2019-04-20T21:13:56.218Z,100000.09
2019-04-20T21:16:29.195Z,99996.53
2019-04-20T21:19:15.989Z,99988.49
2019-04-20T21:21:37.084Z,99986.27
2019-04-20T21:24:06.738Z,99978.97
2019-04-20T21:26:35.668Z,99975.06
2019-04-20T21:29:00.125Z,99979.53
2019-04-20T21:31:29.679Z,99977.68
2019-04-20T21:34:01.932Z,99968.23
2019-04-20T21:36:31.357Z,99977.96
2019-04-20T21:38:58.530Z,99974.98
2019-04-20T21:41:27.862Z,99967.03
2019-04-20T21:43:58.062Z,99969.64
2019-04-20T21:46:31.919Z,99963.14
2019-04-20T21:49:11.932Z,99962.13
2019-04-20T21:51:36.992Z,99960.38
2019-04-20T21:53:58.736Z,99960.95
2019-04-20T21:56:28.083Z,99960.22
2019-04-20T21:59:00.757Z,99957.70
2019-04-20T22:01:34.624Z,99959.45
2019-04-20T22:03:56.548Z,99953.19
2019-04-20T22:06:24.807Z,99953.22
2019-04-20T22:08:59.870Z,99952.74
2019-04-20T22:11:24.061Z,99949.66
2019-04-20T22:13:54.435Z,99942.90
2019-04-20T22:16:25.565Z,99946.50
2019-04-20T22:19:10.501Z,99945.66
2019-04-20T22:21:31.392Z,99940.26
2019-04-20T22:24:06.268Z,99944.12
2019-04-20T22:26:30.759Z,99940.47
2019-04-20T22:28:54.057Z,99937.20
2019-04-20T22:31:22.695Z,99938.02
2019-04-20T22:33:52.248Z,99937.30
2019-04-20T22:36:26.031Z,99925.90
2019-04-20T22:39:11.734Z,99925.23
2019-04-20T22:41:47.428Z,99915.53
2019-04-20T22:44:18.412Z,99919.92
2019-04-20T22:46:44.146Z,99911.95
2019-04-20T22:49:30.813Z,99916.34
2019-04-20T22:51:53.138Z,99913.83
2019-04-20T22:54:27.894Z,99910.37
2019-04-20T22:56:55.105Z,99911.62
2019-04-20T22:59:16.493Z,99908.36
2019-04-20T23:01:48.513Z,99908.69
2019-04-20T23:04:12.836Z,99906.83
2019-04-20T23:06:47.740Z,99897.75
2019-04-20T23:09:14.671Z,99899.63
2019-04-20T23:11:42.241Z,99895.34
2019-04-20T23:14:10.980Z,99895.77
2019-04-20T23:16:43.844Z,99887.52
2019-04-20T23:19:10.117Z,99889.02
2019-04-20T23:21:40.081Z,99881.78
2019-04-20T23:24:11.233Z,99884.19
2019-04-20T23:26:42.148Z,99874.73
2019-04-20T23:29:09.217Z,99878.40
2019-04-20T23:31:41.342Z,99868.86
2019-04-20T23:34:15.386Z,99870.28
2019-04-20T23:36:42.356Z,99870.27
2019-04-20T23:39:08.634Z,99867.38
2019-04-20T23:41:37.711Z,99867.48
2019-04-20T23:44:15.187Z,99863.59
2019-04-20T23:46:43.300Z,99869.55
2019-04-20T23:49:27.832Z,99862.52
2019-04-20T23:52:09.757Z,99858.55
2019-04-20T23:54:27.495Z,99857.87
2019-04-20T23:56:53.581Z,99855.66
2019-04-20T23:59:30.785Z,99850.02
